Time;durP1;ratioP1;P1;durP2;ratioP2;P2;SDS_P1;SDS_P2;PMS_P1;PMS_P2;Temp;Humidity;BMP_temperature;BMP_pressure;BME280_temperature;BME280_humidity;BME280_pressure;Samples;Min_cycle;Max_cycle;Signal;HPM_P1;HPM_P2
2022/07/03 00:02:00;;;;;;;4.70;1.25;;;;;;;;;;6302448;22;20059;-64
2022/07/03 00:04:27;;;;;;;2.80;1.15;;;;;;;;;;6305785;22;20054;-64
2022/07/03 00:06:55;;;;;;;2.78;1.35;;;;;;;;;;6302045;22;20064;-64
2022/07/03 00:09:22;;;;;;;1.97;1.20;;;;;;;;;;6331532;22;20018;-64
2022/07/03 00:11:50;;;;;;;3.03;1.33;;;;;;;;;;6302421;22;20280;-64
2022/07/03 00:14:16;;;;;;;3.08;1.17;;;;;;;;;;6305436;22;20045;-64
2022/07/03 00:16:43;;;;;;;4.72;1.25;;;;;;;;;;6297152;22;20020;-64
2022/07/03 00:19:10;;;;;;;3.33;1.38;;;;;;;;;;6274573;22;20023;-64
2022/07/03 00:21:41;;;;;;;2.63;1.15;;;;;;;;;;6270568;22;20026;-64
2022/07/03 00:24:09;;;;;;;2.13;1.23;;;;;;;;;;6275884;22;20100;-64
2022/07/03 00:26:40;;;;;;;2.45;1.23;;;;;;;;;;6275175;22;20022;-64
2022/07/03 00:29:09;;;;;;;2.80;1.20;;;;;;;;;;6296700;22;20035;-64
2022/07/03 00:31:35;;;;;;;3.97;1.55;;;;;;;;;;6279731;22;20015;-64
2022/07/03 00:34:03;;;;;;;6.28;1.30;;;;;;;;;;6271639;22;20031;-64
2022/07/03 00:36:35;;;;;;;2.67;1.05;;;;;;;;;;6274721;22;20041;-64
2022/07/03 00:39:02;;;;;;;7.00;1.35;;;;;;;;;;6284211;22;20026;-65
2022/07/03 00:41:30;;;;;;;5.35;1.73;;;;;;;;;;6293461;22;20015;-64
2022/07/03 00:43:56;;;;;;;4.35;1.90;;;;;;;;;;6271833;22;20072;-64
2022/07/03 00:46:25;;;;;;;6.38;2.40;;;;;;;;;;6289275;22;20019;-64
2022/07/03 00:48:52;;;;;;;4.20;1.42;;;;;;;;;;6328996;22;20027;-64
2022/07/03 00:51:21;;;;;;;2.47;1.25;;;;;;;;;;6291691;22;20046;-64
2022/07/03 00:53:50;;;;;;;2.53;1.10;;;;;;;;;;6272405;22;20039;-64
2022/07/03 00:56:17;;;;;;;;;;;;;;;;;;6275538;22;20023;-64
2022/07/03 00:58:44;;;;;;;2.63;1.20;;;;;;;;;;6272214;22;19919;-65
2022/07/03 01:01:12;;;;;;;2.83;1.42;;;;;;;;;;6270658;22;20120;-64
2022/07/03 01:03:42;;;;;;;2.92;1.33;;;;;;;;;;6249477;22;20020;-64
2022/07/03 01:06:13;;;;;;;2.47;1.30;;;;;;;;;;6233442;23;20062;-64
2022/07/03 01:08:43;;;;;;;3.22;1.38;;;;;;;;;;6235387;23;20078;-64
2022/07/03 01:11:15;;;;;;;2.35;1.30;;;;;;;;;;6259587;22;20020;-64
2022/07/03 01:13:45;;;;;;;2.38;1.20;;;;;;;;;;6266138;22;20027;-64
2022/07/03 01:16:17;;;;;;;2.83;1.40;;;;;;;;;;6244947;22;20016;-64
2022/07/03 01:18:49;;;;;;;3.72;1.25;;;;;;;;;;6235174;23;20095;-65
2022/07/03 01:21:20;;;;;;;1.80;1.00;;;;;;;;;;6239360;23;20032;-64
2022/07/03 01:23:57;;;;;;;2.28;1.30;;;;;;;;;;6238895;23;20105;-64
2022/07/03 01:26:27;;;;;;;2.00;1.15;;;;;;;;;;6239209;23;20023;-64
2022/07/03 01:28:53;;;;;;;3.85;2.10;;;;;;;;;;6267341;22;20020;-63
2022/07/03 01:31:21;;;;;;;9.15;3.10;;;;;;;;;;6265813;22;20103;-63
2022/07/03 01:33:48;;;;;;;8.63;2.72;;;;;;;;;;6272363;22;20019;-63
2022/07/03 01:36:16;;;;;;;4.35;1.73;;;;;;;;;;6267019;22;20059;-64
2022/07/03 01:38:43;;;;;;;6.07;1.50;;;;;;;;;;6271025;22;20028;-64
2022/07/03 01:41:10;;;;;;;2.83;1.38;;;;;;;;;;6266559;22;20047;-64
2022/07/03 01:43:40;;;;;;;5.25;1.50;;;;;;;;;;6268734;22;20110;-63
2022/07/03 01:46:06;;;;;;;2.75;1.30;;;;;;;;;;6265561;22;20027;-64
2022/07/03 01:48:34;;;;;;;3.13;1.63;;;;;;;;;;6268633;22;20015;-63
2022/07/03 01:51:01;;;;;;;3.08;1.42;;;;;;;;;;6266165;22;20097;-63
2022/07/03 01:53:29;;;;;;;2.10;1.20;;;;;;;;;;6268617;22;20035;-64
2022/07/03 01:55:56;;;;;;;4.00;1.40;;;;;;;;;;6265861;22;20031;-64
2022/07/03 01:58:24;;;;;;;3.53;1.30;;;;;;;;;;6268383;22;20031;-65
2022/07/03 02:00:57;;;;;;;2.80;1.30;;;;;;;;;;6266295;22;20054;-64
2022/07/03 02:03:26;;;;;;;4.57;1.23;;;;;;;;;;6272925;22;20030;-63
2022/07/03 02:05:59;;;;;;;3.25;1.50;;;;;;;;;;6279237;22;20019;-64
2022/07/03 02:08:30;;;;;;;3.25;1.40;;;;;;;;;;6319117;22;20019;-64
2022/07/03 02:11:05;;;;;;;4.38;1.40;;;;;;;;;;6283215;22;20045;-64
2022/07/03 02:13:35;;;;;;;1.88;1.30;;;;;;;;;;6289006;22;20015;-63
2022/07/03 02:16:03;;;;;;;3.55;1.42;;;;;;;;;;6269684;22;20023;-64
2022/07/03 02:18:32;;;;;;;3.05;1.20;;;;;;;;;;6272693;22;20022;-64
2022/07/03 02:21:04;;;;;;;3.13;1.40;;;;;;;;;;6285989;22;20026;-64
2022/07/03 02:23:32;;;;;;;3.38;1.48;;;;;;;;;;6299389;22;20023;-63
2022/07/03 02:26:01;;;;;;;2.17;1.20;;;;;;;;;;6273132;22;20019;-64
2022/07/03 02:28:33;;;;;;;3.05;1.50;;;;;;;;;;6286792;22;20019;-63
2022/07/03 02:31:02;;;;;;;2.20;1.30;;;;;;;;;;6299864;22;20027;-64
2022/07/03 02:33:31;;;;;;;3.58;1.40;;;;;;;;;;6278545;22;20022;-63
2022/07/03 02:35:58;;;;;;;1.95;1.10;;;;;;;;;;6280109;22;20069;-63
2022/07/03 02:38:26;;;;;;;2.53;1.45;;;;;;;;;;6294850;22;20019;-63
2022/07/03 02:40:57;;;;;;;2.70;1.35;;;;;;;;;;6279347;22;20102;-63
2022/07/03 02:43:28;;;;;;;2.80;1.50;;;;;;;;;;6270314;22;20046;-63
2022/07/03 02:45:57;;;;;;;3.03;1.38;;;;;;;;;;6297336;22;20023;-63
2022/07/03 02:48:27;;;;;;;2.45;1.55;;;;;;;;;;6294235;22;20119;-64
2022/07/03 02:54:23;;;;;;;2.83;1.25;;;;;;;;;;6242124;22;20054;-63
2022/07/03 02:57:01;;;;;;;2.75;1.50;;;;;;;;;;6233408;23;20077;-63
2022/07/03 02:59:33;;;;;;;1.85;1.20;;;;;;;;;;6226577;23;20024;-63
2022/07/03 03:02:04;;;;;;;2.90;1.38;;;;;;;;;;6228909;23;20027;-64
2022/07/03 03:04:33;;;;;;;6.10;1.40;;;;;;;;;;6226959;23;20082;-64
2022/07/03 03:07:03;;;;;;;2.10;1.30;;;;;;;;;;6235790;23;20020;-64
2022/07/03 03:09:35;;;;;;;3.47;1.48;;;;;;;;;;6229196;23;20016;-63
2022/07/03 03:12:02;;;;;;;3.00;1.38;;;;;;;;;;6235496;23;20034;-64
2022/07/03 03:14:35;;;;;;;5.70;1.67;;;;;;;;;;6231809;23;20031;-64
2022/07/03 03:17:06;;;;;;;3.05;1.60;;;;;;;;;;6241695;22;20023;-64
2022/07/03 03:19:37;;;;;;;3.30;1.50;;;;;;;;;;6216055;23;20016;-63
2022/07/03 03:22:07;;;;;;;3.58;1.50;;;;;;;;;;6206075;23;20024;-63
2022/07/03 03:24:36;;;;;;;3.13;1.30;;;;;;;;;;6209418;23;20020;-64
2022/07/03 03:27:02;;;;;;;;;;;;;;;;;;6230814;23;20024;-63
2022/07/03 03:29:29;;;;;;;1.92;1.20;;;;;;;;;;6211287;23;19919;-63
2022/07/03 03:31:56;;;;;;;3.58;1.50;;;;;;;;;;6229185;23;20020;-63
2022/07/03 03:34:23;;;;;;;2.53;1.45;;;;;;;;;;6211179;23;20020;-64
2022/07/03 03:36:52;;;;;;;3.20;1.50;;;;;;;;;;6207393;23;20143;-64
2022/07/03 03:39:19;;;;;;;3.13;1.30;;;;;;;;;;6211263;23;20020;-63
2022/07/03 03:41:47;;;;;;;3.65;1.38;;;;;;;;;;6209597;22;20024;-63
2022/07/03 03:44:13;;;;;;;3.70;1.70;;;;;;;;;;6232407;22;20028;-63
2022/07/03 03:46:40;;;;;;;3.45;1.27;;;;;;;;;;6236190;22;20023;-63
2022/07/03 03:49:07;;;;;;;3.67;1.40;;;;;;;;;;6231646;22;20016;-63
2022/07/03 03:51:33;;;;;;;4.47;1.63;;;;;;;;;;6236315;22;20046;-63
2022/07/03 03:54:03;;;;;;;2.67;1.38;;;;;;;;;;6231699;22;20106;-63
2022/07/03 03:56:30;;;;;;;3.25;1.52;;;;;;;;;;6261672;22;20020;-63
2022/07/03 03:58:58;;;;;;;2.47;1.38;;;;;;;;;;6235251;22;20024;-63
2022/07/03 04:01:25;;;;;;;3.72;1.48;;;;;;;;;;6229160;22;20028;-64
2022/07/03 04:03:53;;;;;;;3.28;1.50;;;;;;;;;;6210523;23;20029;-63
2022/07/03 04:06:20;;;;;;;3.50;1.83;;;;;;;;;;6209633;23;20021;-63
2022/07/03 04:08:46;;;;;;;3.85;1.50;;;;;;;;;;6232413;23;20024;-64
2022/07/03 04:11:13;;;;;;;3.97;1.40;;;;;;;;;;6204064;23;20091;-64
2022/07/03 04:13:40;;;;;;;3.15;1.50;;;;;;;;;;6206991;23;20087;-64
2022/07/03 04:16:08;;;;;;;3.42;1.60;;;;;;;;;;6230651;23;20128;-64
2022/07/03 04:18:35;;;;;;;3.28;1.63;;;;;;;;;;6230690;23;20051;-64
2022/07/03 04:21:01;;;;;;;2.47;1.30;;;;;;;;;;6207808;23;20024;-64
2022/07/03 04:23:28;;;;;;;2.20;1.40;;;;;;;;;;6204346;23;20017;-64
2022/07/03 04:25:54;;;;;;;2.38;1.38;;;;;;;;;;6232265;23;20024;-64
2022/07/03 04:28:24;;;;;;;2.38;1.50;;;;;;;;;;6204566;23;20024;-64
2022/07/03 04:30:51;;;;;;;3.30;1.40;;;;;;;;;;6207035;23;20028;-64
2022/07/03 04:33:19;;;;;;;3.92;1.58;;;;;;;;;;6203941;23;20029;-64
2022/07/03 04:35:45;;;;;;;4.35;1.60;;;;;;;;;;6207196;23;20050;-63
2022/07/03 04:38:12;;;;;;;3.13;1.75;;;;;;;;;;6206039;23;20028;-64
2022/07/03 04:40:39;;;;;;;2.65;1.38;;;;;;;;;;6207294;23;20020;-64
2022/07/03 04:43:06;;;;;;;3.92;1.33;;;;;;;;;;6208981;23;20031;-64
2022/07/03 04:45:32;;;;;;;5.57;1.95;;;;;;;;;;6205872;23;20025;-64
2022/07/03 04:47:59;;;;;;;3.42;1.67;;;;;;;;;;6234707;23;20024;-64
2022/07/03 04:50:27;;;;;;;3.22;1.50;;;;;;;;;;6231808;23;20071;-64
2022/07/03 04:52:54;;;;;;;3.17;1.50;;;;;;;;;;6210037;23;20020;-63
2022/07/03 04:55:20;;;;;;;4.45;1.67;;;;;;;;;;6211910;23;20095;-64
2022/07/03 04:57:47;;;;;;;3.30;1.50;;;;;;;;;;6213439;23;20020;-64
2022/07/03 05:00:14;;;;;;;3.25;1.38;;;;;;;;;;6214328;23;20016;-63
2022/07/03 05:02:41;;;;;;;2.67;1.50;;;;;;;;;;6210617;23;20016;-64
2022/07/03 05:05:08;;;;;;;4.82;1.42;;;;;;;;;;6223832;23;20017;-64
2022/07/03 05:07:36;;;;;;;4.97;1.33;;;;;;;;;;6204428;23;20016;-64
2022/07/03 05:10:03;;;;;;;4.57;1.73;;;;;;;;;;6183459;23;20020;-64
2022/07/03 05:12:30;;;;;;;7.75;1.70;;;;;;;;;;6181880;23;20032;-64
2022/07/03 05:14:56;;;;;;;2.88;1.40;;;;;;;;;;6183933;23;20025;-64
2022/07/03 05:17:23;;;;;;;2.83;1.27;;;;;;;;;;6200253;23;20046;-65
2022/07/03 05:20:23;;;;;;;7.38;1.63;;;;;;;;;;6211258;23;20023;-64
2022/07/03 05:22:38;;;;;;;5.70;1.83;;;;;;;;;;6211163;23;20099;-65
2022/07/03 05:25:05;;;;;;;2.00;1.20;;;;;;;;;;6212189;23;20095;-64
2022/07/03 05:27:32;;;;;;;3.10;1.60;;;;;;;;;;6213821;23;20016;-64
2022/07/03 05:29:58;;;;;;;7.18;1.75;;;;;;;;;;6207111;23;20024;-64
2022/07/03 05:32:25;;;;;;;2.75;1.48;;;;;;;;;;6213241;23;20026;-63
2022/07/03 05:34:51;;;;;;;2.85;1.45;;;;;;;;;;6210226;23;20017;-64
2022/07/03 05:37:19;;;;;;;3.85;1.20;;;;;;;;;;6214110;23;20020;-64
2022/07/03 05:39:47;;;;;;;4.47;1.60;;;;;;;;;;6210182;23;20024;-64
2022/07/03 05:42:13;;;;;;;5.15;1.60;;;;;;;;;;6211419;23;20036;-64
2022/07/03 05:44:40;;;;;;;5.10;1.70;;;;;;;;;;6208834;23;20024;-65
2022/07/03 05:47:08;;;;;;;2.28;1.20;;;;;;;;;;6183484;23;20096;-64
2022/07/03 05:49:35;;;;;;;3.92;1.33;;;;;;;;;;6180249;23;20021;-64
2022/07/03 05:52:01;;;;;;;3.30;1.30;;;;;;;;;;6183194;23;20020;-64
2022/07/03 05:54:28;;;;;;;6.15;1.40;;;;;;;;;;6179271;23;20036;-64
2022/07/03 05:56:56;;;;;;;2.35;1.40;;;;;;;;;;6182953;23;20013;-65
2022/07/03 05:59:23;;;;;;;3.38;1.10;;;;;;;;;;6179449;23;20016;-64
2022/07/03 06:01:49;;;;;;;1.92;1.10;;;;;;;;;;6183759;23;20106;-64
2022/07/03 06:04:16;;;;;;;2.20;1.20;;;;;;;;;;6180956;23;20020;-64
2022/07/03 06:06:43;;;;;;;5.03;1.33;;;;;;;;;;6182277;23;20016;-64
2022/07/03 06:09:09;;;;;;;4.13;1.23;;;;;;;;;;6208730;23;20025;-64
2022/07/03 06:11:36;;;;;;;3.70;1.33;;;;;;;;;;6231941;23;20027;-64
2022/07/03 06:14:04;;;;;;;3.88;1.30;;;;;;;;;;6212956;23;20020;-64
2022/07/03 06:16:33;;;;;;;1.65;1.05;;;;;;;;;;6212335;23;20016;-64
2022/07/03 06:19:00;;;;;;;4.07;1.55;;;;;;;;;;6214550;23;20040;-64
2022/07/03 06:21:27;;;;;;;6.25;1.20;;;;;;;;;;6211029;23;20099;-64
2022/07/03 06:23:53;;;;;;;3.55;1.30;;;;;;;;;;6215540;23;20039;-64
2022/07/03 06:26:20;;;;;;;2.95;1.13;;;;;;;;;;6210922;23;20034;-64
2022/07/03 06:28:46;;;;;;;3.42;1.15;;;;;;;;;;6213211;23;20016;-64
2022/07/03 06:31:15;;;;;;;2.20;1.20;;;;;;;;;;6207970;23;20020;-64
2022/07/03 06:33:42;;;;;;;6.40;1.30;;;;;;;;;;6212564;23;20043;-65
2022/07/03 06:36:08;;;;;;;3.08;1.10;;;;;;;;;;6209018;23;20055;-64
2022/07/03 06:38:35;;;;;;;3.00;1.05;;;;;;;;;;6212922;23;20027;-64
2022/07/03 06:41:02;;;;;;;4.90;1.30;;;;;;;;;;6209399;23;20043;-64
2022/07/03 06:43:28;;;;;;;2.08;0.90;;;;;;;;;;6238474;22;20086;-64
2022/07/03 06:45:55;;;;;;;3.65;1.23;;;;;;;;;;6209502;23;20022;-64
2022/07/03 06:48:24;;;;;;;2.80;1.00;;;;;;;;;;6212578;23;20091;-64
2022/07/03 06:50:51;;;;;;;5.03;1.30;;;;;;;;;;6212913;23;20026;-64
2022/07/03 06:53:18;;;;;;;3.72;1.05;;;;;;;;;;6208882;23;20094;-64
2022/07/03 06:55:44;;;;;;;3.90;1.10;;;;;;;;;;6212831;23;20074;-64
2022/07/03 06:58:11;;;;;;;9.77;3.67;;;;;;;;;;6210063;23;20015;-63
2022/07/03 07:00:38;;;;;;;20.05;6.15;;;;;;;;;;6215609;23;20024;-64
2022/07/03 07:03:05;;;;;;;8.65;2.80;;;;;;;;;;6209784;23;20015;-63
2022/07/03 07:05:34;;;;;;;6.28;2.00;;;;;;;;;;6203074;23;20039;-63
2022/07/03 07:08:00;;;;;;;2.25;1.20;;;;;;;;;;6208626;23;20028;-63
2022/07/03 07:10:27;;;;;;;4.55;1.27;;;;;;;;;;6209751;23;20090;-64
2022/07/03 07:12:54;;;;;;;6.25;1.15;;;;;;;;;;6209717;23;20020;-64
2022/07/03 07:15:21;;;;;;;3.65;1.15;;;;;;;;;;6212849;23;20023;-64
2022/07/03 07:17:48;;;;;;;2.45;1.00;;;;;;;;;;6238703;23;20055;-64
2022/07/03 07:20:14;;;;;;;2.58;1.35;;;;;;;;;;6232878;23;20030;-64
2022/07/03 07:22:42;;;;;;;1.73;1.02;;;;;;;;;;6211317;23;20024;-64
2022/07/03 07:25:09;;;;;;;8.88;1.20;;;;;;;;;;6206843;23;20016;-64
2022/07/03 07:27:41;;;;;;;5.82;1.05;;;;;;;;;;6210498;23;20025;-64
2022/07/03 07:30:09;;;;;;;3.20;1.20;;;;;;;;;;6208670;23;20016;-64
2022/07/03 07:32:38;;;;;;;2.75;1.23;;;;;;;;;;6211765;23;20020;-64
2022/07/03 07:35:05;;;;;;;10.48;1.10;;;;;;;;;;6208516;23;20051;-64
2022/07/03 07:37:32;;;;;;;4.68;0.98;;;;;;;;;;6210760;23;20023;-65
2022/07/03 07:40:00;;;;;;;3.03;0.95;;;;;;;;;;6213522;23;20024;-64
2022/07/03 07:42:27;;;;;;;4.50;1.17;;;;;;;;;;6234090;23;20024;-64
2022/07/03 07:44:54;;;;;;;3.33;1.35;;;;;;;;;;6211147;23;20039;-64
2022/07/03 07:47:23;;;;;;;4.63;1.58;;;;;;;;;;6208260;23;20020;-64
2022/07/03 07:49:49;;;;;;;3.47;1.00;;;;;;;;;;6211577;23;20020;-64
2022/07/03 07:52:16;;;;;;;2.72;1.05;;;;;;;;;;6209237;23;20038;-64
2022/07/03 07:54:43;;;;;;;3.60;1.10;;;;;;;;;;6236163;23;20028;-64
2022/07/03 07:57:12;;;;;;;7.80;1.02;;;;;;;;;;6236688;23;20020;-64
2022/07/03 07:59:39;;;;;;;3.53;1.00;;;;;;;;;;6236211;23;20075;-65
2022/07/03 08:07:33;;;;;;;6.05;1.40;;;;;;;;;;6235533;23;20051;-65
2022/07/03 08:10:00;;;;;;;8.75;2.00;;;;;;;;;;6257087;22;20020;-65
2022/07/03 08:12:28;;;;;;;2.28;1.00;;;;;;;;;;6235157;22;20070;-65
2022/07/03 08:14:55;;;;;;;5.47;1.05;;;;;;;;;;6233787;22;20027;-65
2022/07/03 08:17:23;;;;;;;3.28;1.20;;;;;;;;;;6238027;22;20047;-65
2022/07/03 08:19:50;;;;;;;;;;;;;;;;;;6260041;22;20016;-64
2022/07/03 08:22:17;;;;;;;5.00;1.10;;;;;;;;;;6239056;22;19922;-65
2022/07/03 08:24:43;;;;;;;5.40;1.17;;;;;;;;;;6237747;22;20020;-65
2022/07/03 08:27:10;;;;;;;3.70;0.90;;;;;;;;;;6259112;22;20009;-65
2022/07/03 08:29:38;;;;;;;2.25;0.90;;;;;;;;;;6264022;22;20031;-65
2022/07/03 08:32:07;;;;;;;4.78;1.25;;;;;;;;;;6259007;22;20024;-65
2022/07/03 08:34:33;;;;;;;3.63;0.90;;;;;;;;;;6238289;22;20024;-65
2022/07/03 08:37:00;;;;;;;6.63;1.10;;;;;;;;;;6233132;23;20031;-66
2022/07/03 08:39:27;;;;;;;3.92;1.08;;;;;;;;;;6264048;22;20074;-65
2022/07/03 08:41:54;;;;;;;5.57;1.17;;;;;;;;;;6260829;22;20074;-65
2022/07/03 08:44:21;;;;;;;4.55;1.25;;;;;;;;;;6263035;22;20071;-65
2022/07/03 08:46:50;;;;;;;1.95;0.90;;;;;;;;;;6262552;22;20024;-65
2022/07/03 08:49:17;;;;;;;3.28;1.00;;;;;;;;;;6264657;22;20019;-65
2022/07/03 08:51:46;;;;;;;4.63;1.00;;;;;;;;;;6267795;22;20082;-66
2022/07/03 08:54:13;;;;;;;3.20;1.15;;;;;;;;;;6246909;22;20031;-65
2022/07/03 08:56:41;;;;;;;2.40;0.85;;;;;;;;;;6237911;23;20037;-65
2022/07/03 08:59:08;;;;;;;;;;;;;;;;;;6208206;23;20024;-65
2022/07/03 09:01:39;;;;;;;2.25;0.90;;;;;;;;;;6206329;23;19950;-65
2022/07/03 09:04:09;;;;;;;2.83;1.00;;;;;;;;;;6207886;23;20027;-65
2022/07/03 09:06:36;;;;;;;1.67;0.95;;;;;;;;;;6208725;23;20028;-65
2022/07/03 09:09:03;;;;;;;5.10;1.65;;;;;;;;;;6212281;23;20036;-65
2022/07/03 09:11:30;;;;;;;9.55;3.05;;;;;;;;;;6207435;23;20035;-65
2022/07/03 09:13:57;;;;;;;2.83;1.05;;;;;;;;;;6211877;23;20024;-65
2022/07/03 09:16:23;;;;;;;2.33;0.80;;;;;;;;;;6207439;23;20024;-65
2022/07/03 09:18:50;;;;;;;5.32;1.20;;;;;;;;;;6214311;23;20012;-65
2022/07/03 09:21:18;;;;;;;2.92;1.10;;;;;;;;;;6209277;23;20097;-65
2022/07/03 09:23:47;;;;;;;1.88;0.77;;;;;;;;;;6212456;23;20086;-65
2022/07/03 09:26:15;;;;;;;3.58;0.70;;;;;;;;;;6213937;23;20016;-65
2022/07/03 09:28:43;;;;;;;4.60;0.90;;;;;;;;;;6203808;23;20096;-66
2022/07/03 09:31:10;;;;;;;4.03;0.93;;;;;;;;;;6212569;23;20028;-66
2022/07/03 09:33:48;;;;;;;1.95;0.90;;;;;;;;;;6207806;23;20026;-66
2022/07/03 09:36:15;;;;;;;3.20;1.00;;;;;;;;;;6211844;23;20035;-65
2022/07/03 09:38:45;;;;;;;5.65;1.00;;;;;;;;;;6207015;23;20107;-66
2022/07/03 09:41:12;;;;;;;5.32;1.10;;;;;;;;;;6211446;23;20020;-66
2022/07/03 09:43:42;;;;;;;2.88;0.90;;;;;;;;;;6209311;23;20016;-66
2022/07/03 09:46:09;;;;;;;4.43;1.00;;;;;;;;;;6210805;23;20028;-66
2022/07/03 09:48:37;;;;;;;4.43;1.02;;;;;;;;;;6211134;23;20146;-67
2022/07/03 09:51:14;;;;;;;2.78;0.90;;;;;;;;;;6206780;23;20026;-66
2022/07/03 09:53:46;;;;;;;1.43;0.80;;;;;;;;;;6211142;23;20016;-66
2022/07/03 09:56:17;;;;;;;1.98;0.70;;;;;;;;;;6232590;23;20092;-66
2022/07/03 09:58:58;;;;;;;3.50;0.90;;;;;;;;;;6210600;23;20026;-66
2022/07/03 10:01:25;;;;;;;5.95;1.00;;;;;;;;;;6199260;23;20024;-66
2022/07/03 10:03:52;;;;;;;3.67;1.23;;;;;;;;;;6232279;23;20024;-66
2022/07/03 10:06:18;;;;;;;2.53;1.05;;;;;;;;;;6206469;23;20024;-66
2022/07/03 10:08:47;;;;;;;14.18;1.10;;;;;;;;;;6198235;23;20074;-66
2022/07/03 10:11:14;;;;;;;3.33;1.00;;;;;;;;;;6208549;23;20020;-67
2022/07/03 10:13:41;;;;;;;1.20;0.82;;;;;;;;;;6233188;23;20055;-65
2022/07/03 10:16:09;;;;;;;7.00;1.63;;;;;;;;;;6214162;23;20021;-65
2022/07/03 10:18:37;;;;;;;2.92;1.00;;;;;;;;;;6207966;23;20020;-65
2022/07/03 10:21:06;;;;;;;6.35;2.08;;;;;;;;;;6212451;23;20030;-66
2022/07/03 10:23:33;;;;;;;4.97;1.63;;;;;;;;;;6208042;23;20023;-66
2022/07/03 10:26:02;;;;;;;2.75;1.25;;;;;;;;;;6245535;23;20027;-66
2022/07/03 10:28:31;;;;;;;4.03;1.00;;;;;;;;;;6210309;23;20051;-66
2022/07/03 10:30:58;;;;;;;4.63;1.00;;;;;;;;;;6210744;23;20020;-66
2022/07/03 10:33:25;;;;;;;1.85;0.88;;;;;;;;;;6211837;23;20020;-66
2022/07/03 10:35:53;;;;;;;3.97;1.10;;;;;;;;;;6206994;23;20378;-66
2022/07/03 10:38:26;;;;;;;1.80;1.00;;;;;;;;;;6210800;23;20020;-66
2022/07/03 10:46:26;;;;;;;2.70;1.08;;;;;;;;;;6205635;23;20099;-66
2022/07/03 10:48:56;;;;;;;5.90;1.15;;;;;;;;;;6236634;23;20097;-68
2022/07/03 10:51:23;;;;;;;2.92;1.00;;;;;;;;;;6206412;23;20087;-69
2022/07/03 10:53:49;;;;;;;1.45;0.93;;;;;;;;;;6223118;22;20031;-66
2022/07/03 10:56:16;;;;;;;2.00;0.90;;;;;;;;;;6238871;22;20074;-65
2022/07/03 10:58:57;;;;;;;1.73;0.85;;;;;;;;;;6239168;22;20027;-68
2022/07/03 11:01:27;;;;;;;2.75;1.00;;;;;;;;;;6238017;22;20031;-66
2022/07/03 11:03:57;;;;;;;3.58;0.90;;;;;;;;;;6236522;22;20019;-70
2022/07/03 11:06:54;;;;;;;4.85;1.13;;;;;;;;;;6240479;22;20027;-66
2022/07/03 11:09:22;;;;;;;7.50;0.93;;;;;;;;;;6086040;23;20025;-67
2022/07/03 11:11:57;;;;;;;4.20;1.23;;;;;;;;;;6206155;22;20043;-67
2022/07/03 11:14:26;;;;;;;4.63;1.17;;;;;;;;;;6236809;22;20022;-69
2022/07/03 11:17:08;;;;;;;4.18;1.10;;;;;;;;;;6229989;22;20024;-69
2022/07/03 11:19:35;;;;;;;2.75;0.93;;;;;;;;;;6234100;22;20016;-65
2022/07/03 11:22:06;;;;;;;4.30;0.73;;;;;;;;;;6242232;22;20023;-65
2022/07/03 11:24:40;;;;;;;2.17;0.90;;;;;;;;;;6237351;22;20026;-68
2022/07/03 11:27:20;;;;;;;2.30;1.10;;;;;;;;;;6242798;22;20024;-69
2022/07/03 11:29:53;;;;;;;2.05;0.90;;;;;;;;;;6237329;22;20023;-65
2022/07/03 11:32:38;;;;;;;1.98;0.98;;;;;;;;;;6217493;22;20020;-64
2022/07/03 11:35:05;;;;;;;4.43;1.10;;;;;;;;;;6239998;22;20026;-65
2022/07/03 11:37:33;;;;;;;1.63;0.70;;;;;;;;;;6239876;22;20020;-66
2022/07/03 11:40:02;;;;;;;2.28;0.80;;;;;;;;;;6241871;22;20019;-68
2022/07/03 11:42:33;;;;;;;3.53;1.00;;;;;;;;;;6236971;22;20103;-68
2022/07/03 11:45:02;;;;;;;2.40;0.90;;;;;;;;;;6241166;22;20027;-66
2022/07/03 11:47:28;;;;;;;;;;;;;;;;;;6236906;22;20023;-66
2022/07/03 11:49:55;;;;;;;2.72;1.38;;;;;;;;;;6241711;22;19997;-66
2022/07/03 11:52:32;;;;;;;3.75;1.25;;;;;;;;;;6236320;22;20023;-65
2022/07/03 11:54:58;;;;;;;4.10;1.13;;;;;;;;;;6239016;22;20103;-66
2022/07/03 11:57:26;;;;;;;1.85;0.80;;;;;;;;;;6238530;22;20035;-66
2022/07/03 11:59:55;;;;;;;2.80;0.82;;;;;;;;;;6238291;22;20103;-66
2022/07/03 12:02:23;;;;;;;1.17;0.75;;;;;;;;;;6233792;22;20205;-66
2022/07/03 12:04:49;;;;;;;2.50;1.00;;;;;;;;;;6237746;22;20028;-66
2022/07/03 12:07:16;;;;;;;3.55;0.80;;;;;;;;;;6240381;22;20026;-67
2022/07/03 12:09:43;;;;;;;3.42;1.42;;;;;;;;;;6236325;22;20024;-66
2022/07/03 12:12:10;;;;;;;3.05;1.20;;;;;;;;;;6241464;22;20023;-67
2022/07/03 12:14:37;;;;;;;2.37;0.93;;;;;;;;;;6239136;22;20026;-66
2022/07/03 12:17:04;;;;;;;5.40;1.00;;;;;;;;;;6242255;22;20023;-67
2022/07/03 12:19:33;;;;;;;4.95;1.15;;;;;;;;;;6240823;22;20028;-64
2022/07/03 12:21:59;;;;;;;1.77;0.90;;;;;;;;;;6241801;22;20051;-70
2022/07/03 12:24:26;;;;;;;3.40;0.85;;;;;;;;;;6242730;22;20030;-70
2022/07/03 12:26:53;;;;;;;4.43;1.00;;;;;;;;;;6264592;22;20023;-70
2022/07/03 12:29:20;;;;;;;2.42;0.75;;;;;;;;;;6242856;22;20050;-68
2022/07/03 12:31:48;;;;;;;2.13;1.05;;;;;;;;;;6240103;22;20019;-66
2022/07/03 12:34:15;;;;;;;1.98;0.75;;;;;;;;;;6243608;22;20055;-66
2022/07/03 12:36:54;;;;;;;1.90;0.85;;;;;;;;;;6239592;22;20028;-67
2022/07/03 12:39:21;;;;;;;3.63;0.90;;;;;;;;;;6243207;22;20028;-66
2022/07/03 12:41:47;;;;;;;1.48;0.80;;;;;;;;;;6242627;22;20020;-67
2022/07/03 12:44:18;;;;;;;4.32;1.00;;;;;;;;;;6238505;22;20059;-66
2022/07/03 12:46:46;;;;;;;3.83;0.70;;;;;;;;;;6241324;22;20024;-65
2022/07/03 12:49:13;;;;;;;3.50;1.10;;;;;;;;;;6238288;22;20019;-66
2022/07/03 12:51:41;;;;;;;2.28;0.90;;;;;;;;;;6242576;22;20030;-66
2022/07/03 12:54:09;;;;;;;1.27;0.70;;;;;;;;;;6238955;22;20030;-64
2022/07/03 12:56:37;;;;;;;3.97;0.90;;;;;;;;;;6267234;22;20050;-62
2022/07/03 12:59:18;;;;;;;1.40;0.77;;;;;;;;;;6239993;22;20020;-64
2022/07/03 13:01:45;;;;;;;4.40;0.82;;;;;;;;;;6243623;22;20016;-62
2022/07/03 13:04:14;;;;;;;2.53;0.73;;;;;;;;;;6243456;22;20058;-64
2022/07/03 13:06:41;;;;;;;4.43;0.95;;;;;;;;;;6241273;22;20153;-64
2022/07/03 13:09:09;;;;;;;3.10;0.80;;;;;;;;;;6244306;22;20073;-62
2022/07/03 13:11:36;;;;;;;4.13;0.77;;;;;;;;;;6240508;22;20039;-63
2022/07/03 13:14:04;;;;;;;1.80;0.77;;;;;;;;;;6244142;22;20015;-62
2022/07/03 13:16:36;;;;;;;1.55;0.70;;;;;;;;;;6240943;22;20030;-63
2022/07/03 13:19:03;;;;;;;1.60;1.10;;;;;;;;;;6231225;22;20019;-63
2022/07/03 13:21:30;;;;;;;2.47;0.85;;;;;;;;;;6240491;22;20023;-62
2022/07/03 13:23:57;;;;;;;4.20;0.90;;;;;;;;;;6244660;22;20095;-63
2022/07/03 13:26:27;;;;;;;2.63;1.25;;;;;;;;;;6242006;22;20021;-62
2022/07/03 13:28:54;;;;;;;12.52;2.85;;;;;;;;;;6243768;22;20019;-62
2022/07/03 13:31:20;;;;;;;4.18;1.35;;;;;;;;;;6244998;22;20016;-62
2022/07/03 13:33:47;;;;;;;3.08;1.50;;;;;;;;;;6241428;22;20028;-62
2022/07/03 13:36:16;;;;;;;4.90;2.05;;;;;;;;;;6243978;22;20012;-63
2022/07/03 13:38:43;;;;;;;5.03;1.60;;;;;;;;;;6239810;22;20047;-63
2022/07/03 13:41:09;;;;;;;3.25;1.27;;;;;;;;;;6244009;22;20023;-62
2022/07/03 13:43:37;;;;;;;10.07;1.30;;;;;;;;;;6241776;22;20016;-62
2022/07/03 13:46:04;;;;;;;7.00;1.48;;;;;;;;;;6244265;22;20011;-62
2022/07/03 13:48:31;;;;;;;6.97;1.50;;;;;;;;;;6240446;22;20042;-63
2022/07/03 13:50:57;;;;;;;2.72;0.85;;;;;;;;;;6244219;22;20022;-62
2022/07/03 13:53:25;;;;;;;5.28;1.13;;;;;;;;;;6234371;23;20038;-62
2022/07/03 13:55:52;;;;;;;;;;;;;;;;;;6214014;23;20020;-63
2022/07/03 13:58:19;;;;;;;6.22;1.20;;;;;;;;;;6209626;23;19919;-61
2022/07/03 14:00:48;;;;;;;5.40;1.92;;;;;;;;;;6213352;23;20027;-62
2022/07/03 14:03:15;;;;;;;5.85;1.58;;;;;;;;;;6235879;23;20054;-64
2022/07/03 14:05:41;;;;;;;4.57;1.63;;;;;;;;;;6207016;23;20085;-62
2022/07/03 14:08:08;;;;;;;3.88;1.10;;;;;;;;;;6236346;23;20024;-61
2022/07/03 14:10:35;;;;;;;3.53;1.30;;;;;;;;;;6211161;23;20024;-63
2022/07/03 14:13:01;;;;;;;2.10;1.00;;;;;;;;;;6213301;23;20024;-63
2022/07/03 14:15:28;;;;;;;2.97;1.20;;;;;;;;;;6209620;23;20024;-62
2022/07/03 14:17:59;;;;;;;3.63;0.85;;;;;;;;;;6239251;23;20023;-62
2022/07/03 14:20:26;;;;;;;2.55;0.85;;;;;;;;;;6236389;23;20016;-62
2022/07/03 14:22:53;;;;;;;2.88;0.90;;;;;;;;;;6212790;23;20028;-63
2022/07/03 14:25:19;;;;;;;5.13;1.20;;;;;;;;;;6235856;23;20016;-62
2022/07/03 14:33:15;;;;;;;2.08;0.90;;;;;;;;;;6212334;23;20059;-62
2022/07/03 14:35:42;;;;;;;2.20;1.02;;;;;;;;;;6212086;23;20071;-63
2022/07/03 14:38:08;;;;;;;3.30;1.58;;;;;;;;;;6211244;23;20016;-63
2022/07/03 14:40:35;;;;;;;3.85;1.17;;;;;;;;;;6212800;23;20016;-63
2022/07/03 14:43:02;;;;;;;2.95;0.93;;;;;;;;;;6210144;23;20028;-64
2022/07/03 14:45:28;;;;;;;5.63;1.20;;;;;;;;;;6212494;23;20035;-65
2022/07/03 14:47:56;;;;;;;5.40;1.30;;;;;;;;;;6209522;23;20024;-64
2022/07/03 14:50:25;;;;;;;5.55;1.15;;;;;;;;;;6212976;23;20198;-63
2022/07/03 14:52:51;;;;;;;10.70;1.27;;;;;;;;;;6211038;23;20023;-62
2022/07/03 14:55:18;;;;;;;3.70;1.00;;;;;;;;;;6210707;23;20020;-64
2022/07/03 14:57:49;;;;;;;3.67;0.90;;;;;;;;;;6238031;23;20027;-64
2022/07/03 15:00:17;;;;;;;5.03;1.23;;;;;;;;;;6209170;23;20012;-65
2022/07/03 15:02:44;;;;;;;5.07;1.20;;;;;;;;;;6237973;23;20042;-64
2022/07/03 15:05:12;;;;;;;4.73;1.27;;;;;;;;;;6209808;23;20020;-63
2022/07/03 15:07:42;;;;;;;7.13;1.30;;;;;;;;;;6237006;23;20340;-64
2022/07/03 15:10:10;;;;;;;3.85;1.20;;;;;;;;;;6234738;23;20024;-64
2022/07/03 15:12:38;;;;;;;2.65;1.30;;;;;;;;;;6237360;23;20012;-65